createdAt,value
2019-03-26T00:00:54.447Z,99.90
2019-03-26T00:03:26.067Z,99.90
2019-03-26T00:05:57.838Z,99.90
2019-03-26T00:08:29.440Z,99.90
2019-03-26T00:11:00.810Z,99.90
2019-03-26T00:13:32.473Z,99.90
2019-03-26T00:16:06.586Z,99.90
2019-03-26T00:18:38.130Z,99.90
2019-03-26T00:21:09.398Z,99.90
2019-03-26T00:23:40.622Z,99.90
2019-03-26T00:26:12.521Z,99.90
2019-03-26T00:28:43.922Z,99.90
2019-03-26T00:31:15.277Z,99.90
2019-03-26T00:33:46.649Z,99.90
2019-03-26T00:36:17.995Z,99.90
2019-03-26T00:38:49.597Z,99.90
2019-03-26T00:41:21.270Z,99.90
2019-03-26T00:43:52.837Z,99.90
2019-03-26T00:46:24.185Z,99.90
2019-03-26T00:48:55.567Z,99.90
2019-03-26T00:51:27.198Z,99.90
2019-03-26T00:54:01.756Z,99.90
2019-03-26T00:56:33.163Z,99.90
2019-03-26T00:59:04.824Z,99.90
2019-03-26T01:01:36.309Z,99.90
2019-03-26T01:04:08.576Z,99.90
2019-03-26T01:06:39.744Z,99.90
2019-03-26T01:09:11.213Z,99.90
2019-03-26T01:11:42.775Z,99.90
2019-03-26T01:14:14.221Z,99.90
2019-03-26T01:16:45.857Z,99.90
2019-03-26T01:19:17.307Z,99.90
2019-03-26T01:21:48.730Z,99.90
2019-03-26T01:24:20.176Z,99.90
2019-03-26T01:26:51.603Z,99.90
2019-03-26T01:29:23.298Z,99.90
2019-03-26T01:31:54.913Z,99.90
2019-03-26T01:34:26.385Z,99.90
2019-03-26T01:36:58.021Z,99.90
2019-03-26T01:39:29.848Z,99.90
2019-03-26T01:42:01.123Z,99.90
2019-03-26T01:44:32.350Z,99.90
2019-03-26T01:47:03.618Z,99.90
2019-03-26T01:49:34.750Z,99.90
2019-03-26T01:52:05.984Z,99.90
2019-03-26T01:54:37.271Z,99.90
2019-03-26T01:57:08.547Z,99.90
2019-03-26T01:59:39.814Z,99.90
2019-03-26T02:02:11.057Z,99.90
2019-03-26T02:04:42.310Z,99.90
2019-03-26T02:07:13.544Z,99.90
2019-03-26T02:09:44.773Z,99.90
2019-03-26T02:12:16.126Z,99.90
2019-03-26T02:14:47.340Z,99.90
2019-03-26T02:17:18.536Z,99.90
2019-03-26T02:19:49.718Z,99.90
2019-03-26T02:22:20.999Z,99.90
2019-03-26T02:24:52.300Z,99.90
2019-03-26T02:27:23.605Z,99.90
2019-03-26T02:29:54.769Z,99.90
2019-03-26T02:32:26.081Z,99.90
2019-03-26T02:34:57.305Z,99.90
2019-03-26T02:37:28.605Z,99.90
2019-03-26T02:39:59.770Z,99.90
2019-03-26T02:42:30.970Z,99.90
2019-03-26T02:45:02.237Z,99.90
2019-03-26T02:47:33.494Z,99.90
2019-03-26T02:50:04.814Z,99.90
2019-03-26T02:52:36.149Z,99.90
2019-03-26T02:55:07.987Z,99.90
2019-03-26T02:57:39.229Z,99.90
2019-03-26T03:00:11.463Z,99.90
2019-03-26T03:02:42.676Z,99.90
2019-03-26T03:05:14.684Z,99.90
2019-03-26T03:07:46.154Z,99.90
2019-03-26T03:10:17.751Z,99.90
2019-03-26T03:12:49.009Z,99.90
2019-03-26T03:15:20.246Z,99.90
2019-03-26T03:17:51.419Z,99.90
2019-03-26T03:20:22.705Z,99.90
2019-03-26T03:22:54.029Z,99.90
2019-03-26T03:25:25.380Z,99.90
2019-03-26T03:27:57.004Z,99.90
2019-03-26T03:30:28.125Z,99.90
2019-03-26T03:32:59.350Z,99.90
2019-03-26T03:35:30.601Z,99.90
2019-03-26T03:38:01.853Z,99.90
2019-03-26T03:40:33.083Z,99.90
2019-03-26T03:43:04.327Z,99.90
2019-03-26T03:45:35.523Z,99.90
2019-03-26T03:48:06.840Z,99.90
2019-03-26T03:50:38.937Z,99.90
2019-03-26T03:53:11.078Z,99.90
2019-03-26T03:55:42.302Z,99.90
2019-03-26T03:58:13.553Z,99.90
2019-03-26T04:00:44.803Z,99.90
2019-03-26T04:03:15.974Z,99.90
2019-03-26T04:05:47.980Z,99.90
2019-03-26T04:08:19.355Z,99.90
2019-03-26T04:10:50.672Z,99.90
2019-03-26T04:13:21.985Z,99.90
2019-03-26T04:15:53.229Z,99.90
2019-03-26T04:18:24.365Z,99.90
2019-03-26T04:20:55.536Z,99.90
2019-03-26T04:23:26.785Z,99.90
2019-03-26T04:25:58.086Z,99.90
2019-03-26T04:28:29.374Z,99.90
2019-03-26T04:31:00.571Z,99.90
2019-03-26T04:33:31.829Z,99.90
2019-03-26T04:36:03.084Z,99.90
2019-03-26T04:38:34.438Z,99.90
2019-03-26T04:41:05.760Z,99.90
2019-03-26T04:43:37.183Z,99.90
2019-03-26T04:46:08.625Z,99.90
2019-03-26T04:48:39.776Z,99.90
2019-03-26T04:51:11.105Z,99.90
2019-03-26T04:53:42.527Z,99.90
2019-03-26T04:56:13.838Z,99.90
2019-03-26T04:58:45.150Z,99.90
2019-03-26T05:01:16.404Z,99.90
2019-03-26T05:03:47.559Z,99.90
2019-03-26T05:06:18.998Z,99.90
2019-03-26T05:08:50.314Z,99.90
2019-03-26T05:11:23.171Z,99.90
2019-03-26T05:13:54.576Z,99.90
2019-03-26T05:16:25.834Z,99.90
2019-03-26T05:18:57.379Z,99.90
2019-03-26T05:21:28.671Z,99.90
2019-03-26T05:24:00.067Z,99.90
2019-03-26T05:26:31.411Z,99.90
2019-03-26T05:29:02.705Z,99.90
2019-03-26T05:31:34.100Z,99.90
2019-03-26T05:34:05.486Z,99.90
2019-03-26T05:36:36.703Z,99.90
2019-03-26T05:39:09.068Z,99.90
2019-03-26T05:41:40.288Z,99.90
2019-03-26T05:44:11.566Z,99.90
2019-03-26T05:46:42.780Z,99.90
2019-03-26T05:49:14.088Z,99.90
2019-03-26T05:51:45.273Z,99.90
2019-03-26T05:54:16.423Z,99.90
2019-03-26T05:56:47.722Z,99.90
2019-03-26T05:59:18.921Z,99.90
2019-03-26T06:01:50.136Z,99.90
2019-03-26T06:04:21.474Z,99.90
2019-03-26T06:07:04.162Z,99.90
2019-03-26T06:09:25.796Z,99.90
2019-03-26T06:11:57.178Z,99.90
2019-03-26T06:14:28.392Z,99.90
2019-03-26T06:16:59.686Z,99.90
2019-03-26T06:19:30.959Z,99.90
2019-03-26T06:22:02.275Z,99.90
2019-03-26T06:24:33.550Z,99.90
2019-03-26T06:27:04.836Z,99.90
2019-03-26T06:29:36.140Z,99.90
2019-03-26T06:32:07.356Z,99.90
2019-03-26T06:34:38.585Z,99.90
2019-03-26T06:37:17.763Z,99.90
2019-03-26T06:39:42.608Z,99.90
2019-03-26T06:42:13.925Z,99.90
2019-03-26T06:44:45.187Z,99.90
2019-03-26T06:47:16.490Z,99.90
2019-03-26T06:49:47.717Z,99.90
2019-03-26T06:52:18.987Z,99.90
2019-03-26T06:54:51.718Z,99.90
2019-03-26T06:57:35.065Z,99.90
2019-03-26T06:59:56.463Z,99.90
2019-03-26T07:02:27.779Z,99.90
2019-03-26T07:04:59.040Z,99.90
2019-03-26T07:07:31.697Z,99.90
2019-03-26T07:10:03.295Z,99.90
2019-03-26T07:12:36.494Z,99.90
2019-03-26T07:15:08.631Z,99.90
2019-03-26T07:17:39.926Z,99.90
2019-03-26T07:20:11.789Z,99.90
2019-03-26T07:22:43.040Z,99.90
2019-03-26T07:25:14.354Z,99.90
2019-03-26T07:28:04.400Z,99.90
2019-03-26T07:30:43.460Z,99.90
2019-03-26T07:33:14.765Z,99.90
2019-03-26T07:35:45.989Z,99.90
2019-03-26T07:38:17.264Z,99.90
2019-03-26T07:40:48.498Z,99.90
2019-03-26T07:43:19.726Z,99.90
2019-03-26T07:45:51.077Z,99.90
2019-03-26T07:48:22.238Z,99.90
2019-03-26T07:50:53.527Z,99.90
2019-03-26T07:53:24.865Z,99.90
2019-03-26T07:55:56.087Z,99.90
2019-03-26T07:58:27.353Z,99.90
2019-03-26T08:00:58.552Z,99.90
2019-03-26T08:03:29.802Z,99.90
2019-03-26T08:06:01.023Z,99.90
2019-03-26T08:08:32.336Z,99.90
2019-03-26T08:11:03.557Z,99.90
2019-03-26T08:13:34.757Z,99.90
2019-03-26T08:16:06.019Z,99.90
2019-03-26T08:18:37.239Z,99.90
2019-03-26T08:21:08.492Z,99.90
2019-03-26T08:23:39.745Z,99.90
2019-03-26T08:26:11.083Z,99.90
2019-03-26T08:28:42.218Z,99.90
2019-03-26T08:31:13.386Z,99.90
2019-03-26T08:33:44.680Z,99.90
2019-03-26T08:36:15.789Z,99.90
2019-03-26T08:38:47.014Z,99.90
2019-03-26T08:41:18.330Z,99.90
2019-03-26T08:43:49.445Z,99.90
2019-03-26T08:46:20.717Z,99.90
2019-03-26T08:48:51.880Z,99.90
2019-03-26T08:51:23.094Z,99.90
2019-03-26T08:53:54.329Z,99.90
2019-03-26T08:56:25.575Z,99.90
2019-03-26T08:58:56.844Z,99.90
2019-03-26T09:01:28.029Z,99.90
2019-03-26T09:03:59.287Z,99.90
2019-03-26T09:06:30.581Z,99.90
2019-03-26T09:09:01.848Z,97.10
2019-03-26T09:11:33.078Z,94.30
2019-03-26T09:14:04.274Z,91.60
2019-03-26T09:16:35.464Z,91.40
2019-03-26T09:19:06.688Z,91.20
2019-03-26T09:21:37.933Z,82.30
2019-03-26T09:24:09.216Z,77.70
2019-03-26T09:26:40.501Z,84.60
2019-03-26T09:29:11.727Z,83.60
2019-03-26T09:31:43.017Z,78.50
2019-03-26T09:34:14.245Z,79.50
2019-03-26T09:36:45.409Z,75.10
2019-03-26T09:39:16.736Z,72.50
2019-03-26T09:41:47.994Z,73.50
2019-03-26T09:44:19.208Z,72.00
2019-03-26T09:46:50.442Z,76.70
2019-03-26T09:49:21.779Z,77.50
2019-03-26T09:51:53.014Z,79.80
2019-03-26T09:54:24.553Z,75.10
2019-03-26T09:56:55.881Z,75.10
2019-03-26T09:59:27.160Z,77.30
2019-03-26T10:01:58.491Z,74.30
2019-03-26T10:04:29.695Z,73.50
2019-03-26T10:07:01.114Z,75.90
2019-03-26T10:09:32.442Z,75.70
2019-03-26T10:12:03.715Z,73.70
2019-03-26T10:14:34.931Z,72.90
2019-03-26T10:17:06.218Z,71.00
2019-03-26T10:19:37.499Z,70.40
2019-03-26T10:22:08.641Z,61.20
2019-03-26T10:24:39.786Z,56.90
2019-03-26T10:27:10.906Z,58.90
2019-03-26T10:29:42.175Z,61.90
2019-03-26T10:32:13.526Z,63.20
2019-03-26T10:34:44.751Z,63.60
2019-03-26T10:37:16.164Z,62.10
2019-03-26T10:39:47.361Z,61.70
2019-03-26T10:42:18.552Z,60.40
2019-03-26T10:44:49.838Z,57.50
2019-03-26T10:47:21.147Z,58.40
2019-03-26T10:49:52.329Z,61.20
2019-03-26T10:52:23.635Z,62.50
2019-03-26T10:54:54.932Z,65.80
2019-03-26T10:57:26.428Z,68.30
2019-03-26T10:59:57.715Z,70.80
2019-03-26T11:02:29.017Z,72.30
2019-03-26T11:05:00.389Z,72.90
2019-03-26T11:07:31.581Z,73.80
2019-03-26T11:10:02.842Z,72.90
2019-03-26T11:12:34.079Z,68.90
2019-03-26T11:15:06.690Z,67.50
2019-03-26T11:17:38.014Z,67.30
2019-03-26T11:20:09.997Z,65.30
2019-03-26T11:22:41.309Z,67.90
2019-03-26T11:25:12.844Z,66.30
2019-03-26T11:27:44.221Z,61.10
2019-03-26T11:30:15.567Z,61.00
2019-03-26T11:32:47.006Z,61.00
2019-03-26T11:35:18.340Z,62.30
2019-03-26T11:37:49.665Z,64.20
2019-03-26T11:40:21.411Z,63.50
2019-03-26T11:42:52.824Z,61.50
2019-03-26T11:45:24.188Z,61.50
2019-03-26T11:47:55.471Z,64.00
2019-03-26T11:50:26.727Z,62.90
2019-03-26T11:52:58.051Z,61.30
2019-03-26T11:55:29.364Z,63.50
2019-03-26T11:58:00.671Z,61.30
2019-03-26T12:00:34.783Z,61.60
2019-03-26T12:03:06.091Z,61.20
2019-03-26T12:05:37.478Z,62.40
2019-03-26T12:08:08.861Z,59.10
2019-03-26T12:10:40.258Z,62.00
2019-03-26T12:13:11.646Z,61.50
2019-03-26T12:15:42.913Z,61.90
2019-03-26T12:18:14.141Z,63.90
2019-03-26T12:20:45.493Z,64.20
2019-03-26T12:23:16.779Z,63.70
2019-03-26T12:25:48.040Z,65.00
2019-03-26T12:28:19.304Z,64.90
2019-03-26T12:30:50.646Z,64.10
2019-03-26T12:33:22.017Z,60.40
2019-03-26T12:35:53.199Z,56.30
2019-03-26T12:38:24.752Z,52.80
2019-03-26T12:40:56.195Z,44.80
2019-03-26T12:43:27.440Z,40.50
2019-03-26T12:46:01.713Z,39.20
2019-03-26T12:48:31.781Z,39.80
2019-03-26T12:51:03.113Z,42.10
2019-03-26T12:53:34.349Z,44.90
2019-03-26T12:56:05.612Z,48.70
2019-03-26T12:58:36.961Z,50.20
2019-03-26T13:01:08.294Z,51.50
2019-03-26T13:03:39.491Z,51.10
2019-03-26T13:06:10.768Z,50.90
2019-03-26T13:08:42.255Z,53.10
2019-03-26T13:11:16.819Z,52.70
2019-03-26T13:13:46.577Z,53.00
2019-03-26T13:16:17.841Z,51.80
2019-03-26T13:18:49.154Z,51.30
2019-03-26T13:21:20.303Z,50.20
2019-03-26T13:23:51.518Z,51.30
2019-03-26T13:26:22.806Z,51.80
2019-03-26T13:28:54.013Z,51.00
2019-03-26T13:31:25.328Z,52.20
2019-03-26T13:33:56.708Z,53.00
2019-03-26T13:36:27.960Z,53.40
2019-03-26T13:38:59.204Z,53.50
2019-03-26T13:41:30.441Z,53.30
2019-03-26T13:44:01.737Z,51.90
2019-03-26T13:46:33.034Z,49.80
2019-03-26T13:49:04.265Z,50.30
2019-03-26T13:51:37.128Z,48.80
2019-03-26T13:54:08.631Z,48.00
2019-03-26T13:56:39.891Z,48.60
2019-03-26T13:59:11.312Z,48.50
2019-03-26T14:01:43.159Z,47.80
2019-03-26T14:04:14.413Z,48.10
2019-03-26T14:06:45.679Z,48.10
2019-03-26T14:09:19.936Z,50.00
2019-03-26T14:11:57.608Z,52.00
2019-03-26T14:14:27.594Z,52.90
2019-03-26T14:17:05.492Z,51.50
2019-03-26T14:19:40.876Z,48.60
2019-03-26T14:22:21.369Z,44.40
2019-03-26T14:25:08.345Z,45.30
2019-03-26T14:27:45.131Z,45.30
2019-03-26T14:30:23.801Z,45.30
2019-03-26T14:33:02.798Z,44.60
2019-03-26T14:35:43.395Z,44.40
2019-03-26T14:38:26.053Z,45.60
2019-03-26T14:41:08.677Z,43.20
2019-03-26T14:43:43.764Z,43.70
2019-03-26T14:46:18.964Z,43.40
2019-03-26T14:48:57.482Z,44.70
2019-03-26T14:51:31.322Z,44.40
2019-03-26T14:54:25.265Z,44.90
2019-03-26T14:56:57.646Z,45.60
2019-03-26T14:59:30.812Z,45.60
2019-03-26T15:02:07.925Z,46.00
2019-03-26T15:04:44.647Z,45.60
2019-03-26T15:07:17.966Z,44.30
2019-03-26T15:09:50.240Z,45.40
2019-03-26T15:12:21.488Z,45.40
2019-03-26T15:14:55.706Z,45.90
2019-03-26T15:17:30.588Z,46.50
2019-03-26T15:20:03.295Z,47.80
2019-03-26T15:22:35.275Z,47.90
2019-03-26T15:25:07.743Z,48.30
2019-03-26T15:27:39.805Z,48.30
2019-03-26T15:30:12.475Z,48.50
2019-03-26T15:32:44.359Z,49.00
2019-03-26T15:35:18.715Z,49.80
2019-03-26T15:37:54.212Z,49.80
2019-03-26T15:40:30.218Z,48.90
2019-03-26T15:43:04.583Z,49.20
2019-03-26T15:45:39.979Z,50.10
2019-03-26T15:48:23.569Z,51.60
2019-03-26T15:50:56.141Z,50.50
2019-03-26T15:53:31.726Z,51.30
2019-03-26T15:56:09.679Z,51.10
2019-03-26T15:58:42.006Z,50.60
2019-03-26T16:01:13.777Z,51.50
2019-03-26T16:03:48.159Z,51.10
2019-03-26T16:06:19.448Z,52.40
2019-03-26T16:08:57.180Z,53.40
2019-03-26T16:11:36.083Z,53.80
2019-03-26T16:14:06.630Z,53.90
2019-03-26T16:16:42.263Z,53.90
2019-03-26T16:19:14.239Z,53.90
2019-03-26T16:21:46.595Z,54.80
2019-03-26T16:24:20.862Z,55.00
2019-03-26T16:26:52.369Z,54.90
2019-03-26T16:29:26.033Z,54.20
2019-03-26T16:31:58.179Z,52.80
2019-03-26T16:34:30.323Z,52.70
2019-03-26T16:37:01.542Z,51.70
2019-03-26T16:39:32.689Z,51.20
2019-03-26T16:42:03.981Z,52.50
2019-03-26T16:44:35.192Z,52.90
2019-03-26T16:47:06.398Z,53.00
2019-03-26T16:49:37.666Z,53.30
2019-03-26T16:52:09.838Z,53.50
2019-03-26T16:54:41.076Z,54.90
2019-03-26T16:57:12.323Z,55.00
2019-03-26T16:59:43.567Z,55.70
2019-03-26T17:02:14.826Z,54.50
2019-03-26T17:04:46.938Z,54.40
2019-03-26T17:07:18.309Z,53.90
2019-03-26T17:09:49.512Z,54.20
2019-03-26T17:12:20.701Z,55.20
2019-03-26T17:14:51.940Z,56.10
2019-03-26T17:17:23.189Z,56.30
2019-03-26T17:19:54.469Z,57.30
2019-03-26T17:22:25.759Z,58.10
2019-03-26T17:24:57.067Z,57.10
2019-03-26T17:27:29.258Z,57.40
2019-03-26T17:30:00.448Z,57.30
2019-03-26T17:32:31.838Z,57.40
2019-03-26T17:35:03.232Z,58.50
2019-03-26T17:37:34.470Z,58.40
2019-03-26T17:40:06.244Z,58.30
2019-03-26T17:42:37.428Z,58.20
2019-03-26T17:45:09.593Z,57.90
2019-03-26T17:47:40.852Z,59.00
2019-03-26T17:50:13.263Z,59.20
2019-03-26T17:52:44.474Z,58.90
2019-03-26T17:55:15.682Z,59.70
2019-03-26T17:57:47.016Z,60.30
2019-03-26T18:00:21.833Z,59.90
2019-03-26T18:02:53.098Z,61.50
2019-03-26T18:05:29.304Z,61.70
2019-03-26T18:08:00.610Z,63.30
2019-03-26T18:10:31.865Z,65.10
2019-03-26T18:13:03.046Z,64.70
2019-03-26T18:15:34.416Z,65.80
2019-03-26T18:18:05.683Z,67.70
2019-03-26T18:20:36.927Z,67.80
2019-03-26T18:23:08.187Z,69.60
2019-03-26T18:25:39.476Z,70.20
2019-03-26T18:28:10.699Z,70.90
2019-03-26T18:30:42.008Z,72.10
2019-03-26T18:33:13.395Z,73.60
2019-03-26T18:35:44.723Z,74.90
2019-03-26T18:38:16.063Z,76.10
2019-03-26T18:40:47.195Z,77.00
2019-03-26T18:43:18.477Z,77.80
2019-03-26T18:45:49.814Z,80.50
2019-03-26T18:48:21.108Z,77.80
2019-03-26T18:50:52.331Z,76.30
2019-03-26T18:53:23.600Z,77.00
2019-03-26T18:55:54.855Z,77.50
2019-03-26T18:58:26.148Z,79.00
2019-03-26T19:00:57.549Z,80.40
2019-03-26T19:03:28.691Z,77.70
2019-03-26T19:06:00.019Z,79.10
2019-03-26T19:08:31.258Z,81.00
2019-03-26T19:11:02.557Z,81.40
2019-03-26T19:13:33.853Z,79.80
2019-03-26T19:16:05.158Z,81.60
2019-03-26T19:18:36.375Z,81.90
2019-03-26T19:21:08.904Z,82.90
2019-03-26T19:23:41.153Z,83.70
2019-03-26T19:26:12.612Z,83.40
2019-03-26T19:28:43.921Z,82.30
2019-03-26T19:31:15.379Z,82.90
2019-03-26T19:33:46.944Z,85.30
2019-03-26T19:36:18.174Z,85.60
2019-03-26T19:38:49.408Z,84.40
2019-03-26T19:41:20.747Z,80.70
2019-03-26T19:43:52.105Z,81.80
2019-03-26T19:46:23.350Z,83.80
2019-03-26T19:48:54.664Z,83.00
2019-03-26T19:51:28.175Z,80.60
2019-03-26T19:53:59.464Z,81.40
2019-03-26T19:56:30.707Z,83.80
2019-03-26T19:59:02.230Z,84.80
2019-03-26T20:01:33.702Z,84.20
2019-03-26T20:04:04.929Z,83.60
2019-03-26T20:06:36.191Z,86.40
2019-03-26T20:09:08.953Z,86.30
2019-03-26T20:11:40.203Z,87.40
2019-03-26T20:14:11.504Z,88.80
2019-03-26T20:16:42.747Z,89.30
2019-03-26T20:19:14.020Z,88.50
2019-03-26T20:21:45.329Z,88.50
2019-03-26T20:24:16.766Z,88.60
2019-03-26T20:26:47.991Z,89.70
2019-03-26T20:29:19.259Z,88.20
2019-03-26T20:31:52.388Z,87.90
2019-03-26T20:34:23.680Z,89.00
2019-03-26T20:36:55.808Z,90.30
2019-03-26T20:39:27.039Z,88.60
2019-03-26T20:41:58.312Z,88.40
2019-03-26T20:44:30.557Z,89.60
2019-03-26T20:47:01.860Z,89.30
2019-03-26T20:49:33.156Z,90.30
2019-03-26T20:52:04.445Z,90.90
2019-03-26T20:54:35.738Z,90.60
2019-03-26T20:57:06.973Z,91.40
2019-03-26T20:59:38.348Z,90.80
2019-03-26T21:02:09.590Z,90.80
2019-03-26T21:04:42.207Z,91.30
2019-03-26T21:07:13.600Z,91.60
2019-03-26T21:09:44.986Z,91.90
2019-03-26T21:12:17.201Z,91.30
2019-03-26T21:14:48.781Z,91.10
2019-03-26T21:17:20.082Z,91.90
2019-03-26T21:19:52.394Z,91.20
2019-03-26T21:22:23.669Z,91.70
2019-03-26T21:24:57.196Z,92.70
2019-03-26T21:27:28.473Z,93.40
2019-03-26T21:30:10.095Z,93.70
2019-03-26T21:32:32.828Z,94.40
2019-03-26T21:35:06.965Z,94.50
2019-03-26T21:37:37.860Z,96.50
2019-03-26T21:40:09.930Z,96.30
2019-03-26T21:42:41.138Z,97.50
2019-03-26T21:45:13.061Z,97.70
2019-03-26T21:47:44.316Z,96.70
2019-03-26T21:50:16.614Z,97.10
2019-03-26T21:52:47.869Z,97.80
2019-03-26T21:55:19.080Z,99.00
2019-03-26T21:57:50.411Z,99.30
2019-03-26T22:00:21.776Z,99.60
2019-03-26T22:02:53.042Z,99.70
2019-03-26T22:05:24.333Z,99.90
2019-03-26T22:07:55.621Z,99.90
2019-03-26T22:10:26.925Z,99.90
2019-03-26T22:12:58.134Z,99.90
2019-03-26T22:15:29.342Z,99.90
2019-03-26T22:18:00.639Z,99.90
2019-03-26T22:20:31.839Z,99.90
2019-03-26T22:23:03.159Z,99.90
2019-03-26T22:25:34.583Z,99.90
2019-03-26T22:28:05.856Z,99.90
2019-03-26T22:30:36.987Z,99.90
2019-03-26T22:33:08.086Z,99.90
2019-03-26T22:35:58.117Z,99.90
2019-03-26T22:38:29.381Z,99.90
2019-03-26T22:41:00.620Z,99.90
2019-03-26T22:43:31.776Z,99.90
2019-03-26T22:46:03.108Z,99.90
2019-03-26T22:48:34.360Z,99.90
2019-03-26T22:51:05.716Z,99.90
2019-03-26T22:53:36.852Z,99.90
2019-03-26T22:56:08.292Z,99.90
2019-03-26T22:58:39.521Z,99.90
2019-03-26T23:01:10.881Z,99.90
2019-03-26T23:03:42.174Z,99.90
2019-03-26T23:06:13.450Z,99.90
2019-03-26T23:08:44.665Z,99.90
2019-03-26T23:11:15.968Z,99.90
2019-03-26T23:13:47.233Z,99.90
2019-03-26T23:16:18.525Z,99.90
2019-03-26T23:18:49.803Z,99.90
2019-03-26T23:21:20.983Z,99.90
2019-03-26T23:23:52.237Z,99.90
2019-03-26T23:26:23.534Z,99.90
2019-03-26T23:28:54.732Z,99.90
2019-03-26T23:31:25.973Z,99.90
2019-03-26T23:33:57.269Z,99.90
2019-03-26T23:36:28.467Z,99.90
2019-03-26T23:38:59.731Z,99.90
2019-03-26T23:41:30.862Z,99.90
2019-03-26T23:44:02.007Z,99.90
2019-03-26T23:46:33.315Z,99.90
2019-03-26T23:49:04.598Z,99.90
2019-03-26T23:51:35.744Z,99.90
2019-03-26T23:54:06.859Z,99.90
2019-03-26T23:56:38.100Z,99.90
2019-03-26T23:59:09.285Z,99.90
